Time;durP1;ratioP1;P1;durP2;ratioP2;P2;SDS_P1;SDS_P2;PMS_P1;PMS_P2;Temp;Humidity;BMP_temperature;BMP_pressure;BME280_temperature;BME280_humidity;BME280_pressure;Samples;Min_cycle;Max_cycle;Signal;HPM_P1;HPM_P2
2023/03/19 00:02:28;;;;;;;12.87;11.60;;;9.40;65.20;;;;;;6252746;28;20239;-83
2023/03/19 00:05:33;;;;;;;12.87;11.57;;;9.30;65.20;;;;;;6273472;28;20233;-82
2023/03/19 00:08:37;;;;;;;13.13;11.80;;;9.20;65.20;;;;;;6273863;28;20261;-82
2023/03/19 00:11:40;;;;;;;13.70;12.10;;;9.20;65.10;;;;;;6279728;28;20543;-81
2023/03/19 00:14:43;;;;;;;12.80;11.53;;;9.20;64.90;;;;;;6256261;28;20725;-81
2023/03/19 00:17:47;;;;;;;13.70;11.27;;;9.20;64.80;;;;;;6259477;28;20266;-80
2023/03/19 00:20:52;;;;;;;11.77;10.67;;;9.20;64.70;;;;;;6261382;28;20234;-81
2023/03/19 00:23:59;;;;;;;13.73;12.00;;;9.10;64.70;;;;;;6266825;28;20248;-82
2023/03/19 00:27:03;;;;;;;12.73;11.43;;;9.10;64.70;;;;;;6234762;28;20905;-80
2023/03/19 00:30:08;;;;;;;13.03;11.77;;;9.10;64.50;;;;;;6258031;28;20718;-82
2023/03/19 00:33:11;;;;;;;14.07;12.70;;;9.00;64.40;;;;;;6270543;28;20235;-82
2023/03/19 00:36:17;;;;;;;13.40;11.97;;;9.00;64.50;;;;;;6258706;28;20257;-82
2023/03/19 00:39:20;;;;;;;15.60;13.83;;;9.00;64.50;;;;;;6256106;28;20235;-83
2023/03/19 00:42:23;;;;;;;14.67;13.17;;;9.00;64.40;;;;;;6257982;28;20273;-82
2023/03/19 00:45:29;;;;;;;14.83;13.20;;;8.90;64.50;;;;;;6258996;28;20253;-81
2023/03/19 00:48:33;;;;;;;15.77;14.10;;;8.90;64.60;;;;;;6256781;28;20234;-81
2023/03/19 00:51:37;;;;;;;15.87;14.40;;;8.80;64.70;;;;;;6265706;28;20230;-82
2023/03/19 00:54:40;;;;;;;14.03;12.53;;;8.80;64.70;;;;;;6266130;28;20244;-80
2023/03/19 00:57:44;;;;;;;13.83;12.53;;;8.80;64.60;;;;;;6276874;28;20242;-82
2023/03/19 01:00:48;;;;;;;16.70;14.60;;;8.70;64.70;;;;;;6290291;28;20296;-81
2023/03/19 01:03:51;;;;;;;17.83;15.47;;;8.70;64.80;;;;;;6287175;28;20273;-82
2023/03/19 01:06:57;;;;;;;17.80;15.20;;;8.60;64.80;;;;;;6289545;28;20224;-82
2023/03/19 01:10:00;;;;;;;17.60;15.17;;;8.60;64.70;;;;;;6277608;28;20233;-82
2023/03/19 01:13:03;;;;;;;16.20;14.27;;;8.60;64.50;;;;;;6308510;28;20254;-81
2023/03/19 01:16:07;;;;;;;16.80;14.67;;;8.60;64.50;;;;;;6317723;28;20292;-80
2023/03/19 01:19:11;;;;;;;18.83;15.50;;;8.50;64.60;;;;;;6315300;28;20251;-82
2023/03/19 01:22:16;;;;;;;16.73;14.93;;;8.50;64.60;;;;;;6278193;28;20249;-82
2023/03/19 01:25:20;;;;;;;15.23;13.63;;;8.50;64.50;;;;;;6280812;28;20348;-82
2023/03/19 01:28:24;;;;;;;15.67;14.27;;;8.40;64.50;;;;;;6273929;28;20229;-82
2023/03/19 01:31:27;;;;;;;15.57;13.97;;;8.40;64.50;;;;;;6276411;28;20632;-82
2023/03/19 01:34:31;;;;;;;17.43;15.33;;;8.40;64.50;;;;;;6256500;28;20307;-81
2023/03/19 01:37:36;;;;;;;17.17;15.40;;;8.30;64.60;;;;;;6259150;28;20239;-82
2023/03/19 01:40:44;;;;;;;18.73;14.70;;;8.40;64.50;;;;;;6263051;28;20247;-82
2023/03/19 01:43:47;;;;;;;15.60;14.00;;;8.30;64.40;;;;;;6268046;28;20232;-81
2023/03/19 01:46:50;;;;;;;15.63;14.03;;;8.30;64.40;;;;;;6292758;28;20252;-80
2023/03/19 01:49:55;;;;;;;16.00;14.47;;;8.30;64.40;;;;;;6305495;28;20289;-82
2023/03/19 01:53:00;;;;;;;16.10;14.07;;;8.30;64.40;;;;;;6297006;28;20214;-82
2023/03/19 01:56:09;;;;;;;14.00;12.60;;;8.30;64.30;;;;;;6303628;28;20305;-80
2023/03/19 01:59:21;;;;;;;15.53;13.63;;;8.30;64.30;;;;;;6301497;28;20272;-82
2023/03/19 02:02:28;;;;;;;15.63;14.07;;;8.20;64.30;;;;;;6252619;28;20241;-82
2023/03/19 02:05:31;;;;;;;17.90;15.23;;;8.20;64.30;;;;;;6264032;28;20256;-81
2023/03/19 02:08:37;;;;;;;16.60;14.83;;;8.20;64.20;;;;;;6256970;28;20768;-82
2023/03/19 02:11:41;;;;;;;15.77;14.20;;;8.20;64.10;;;;;;6267767;28;20711;-83
2023/03/19 02:14:44;;;;;;;16.40;14.80;;;8.20;64.20;;;;;;6254312;28;20238;-82
2023/03/19 02:17:48;;;;;;;15.93;13.53;;;8.20;64.20;;;;;;6278499;28;20538;-81
2023/03/19 02:20:58;;;;;;;15.80;14.30;;;8.10;64.20;;;;;;6265450;28;20230;-85
2023/03/19 02:24:09;;;;;;;16.73;14.97;;;8.10;64.20;;;;;;6262436;28;20235;-81
2023/03/19 02:27:13;;;;;;;15.97;14.33;;;8.10;64.20;;;;;;6271191;28;20526;-82
2023/03/19 02:30:22;;;;;;;15.03;13.63;;;8.10;64.30;;;;;;6270654;28;20250;-83
2023/03/19 02:33:25;;;;;;;15.97;14.37;;;8.00;64.30;;;;;;6272484;28;20334;-81
2023/03/19 02:36:34;;;;;;;16.70;14.67;;;8.00;64.40;;;;;;6268264;28;20234;-81
2023/03/19 02:39:45;;;;;;;17.53;15.23;;;8.00;64.30;;;;;;6273158;28;20241;-82
2023/03/19 02:42:50;;;;;;;15.73;14.00;;;8.00;64.30;;;;;;6269121;28;20242;-80
2023/03/19 02:45:53;;;;;;;15.23;13.53;;;8.00;64.30;;;;;;6253322;28;20250;-81
2023/03/19 02:48:57;;;;;;;13.60;12.20;;;8.00;64.10;;;;;;6257506;28;20759;-80
2023/03/19 02:52:01;;;;;;;14.47;12.97;;;8.00;64.00;;;;;;6267588;28;20306;-80
2023/03/19 02:55:06;;;;;;;15.00;13.60;;;8.00;64.00;;;;;;6257571;28;20248;-81
2023/03/19 02:58:11;;;;;;;13.77;12.40;;;8.00;64.00;;;;;;6270249;28;20268;-82
2023/03/19 03:01:14;;;;;;;14.80;13.40;;;8.00;64.00;;;;;;6263156;28;20257;-81
2023/03/19 03:04:17;;;;;;;15.53;14.03;;;8.00;63.90;;;;;;6270610;28;20256;-81
2023/03/19 03:07:21;;;;;;;14.63;13.23;;;8.00;63.70;;;;;;6289964;28;20694;-81
2023/03/19 03:10:24;;;;;;;15.63;13.97;;;8.00;63.80;;;;;;6289876;28;20327;-82
2023/03/19 03:13:30;;;;;;;16.77;15.00;;;8.10;63.70;;;;;;6292063;28;20270;-82
2023/03/19 03:16:33;;;;;;;15.93;14.43;;;8.00;63.60;;;;;;6284584;28;20241;-81
2023/03/19 03:19:36;;;;;;;16.50;14.83;;;8.00;63.70;;;;;;6283113;28;20724;-82
2023/03/19 03:22:43;;;;;;;16.17;14.50;;;8.00;63.70;;;;;;6274321;28;20351;-81
2023/03/19 03:25:49;;;;;;;15.27;13.77;;;8.10;63.60;;;;;;6284003;28;20229;-82
2023/03/19 03:28:53;;;;;;;16.77;14.97;;;8.10;63.60;;;;;;6279369;28;20257;-81
2023/03/19 03:31:56;;;;;;;15.83;14.23;;;8.10;63.40;;;;;;6284693;28;20241;-82
2023/03/19 03:35:00;;;;;;;16.67;14.97;;;8.10;63.30;;;;;;6283190;28;20779;-82
2023/03/19 03:38:03;;;;;;;18.60;15.83;;;8.10;63.40;;;;;;6279826;28;20368;-81
2023/03/19 03:41:06;;;;;;;16.83;15.10;;;8.00;63.60;;;;;;6283164;28;20237;-81
2023/03/19 03:44:11;;;;;;;17.40;14.50;;;8.00;63.70;;;;;;6274227;28;20774;-82
2023/03/19 03:47:15;;;;;;;16.13;14.27;;;8.00;63.70;;;;;;6281748;28;20620;-80
2023/03/19 03:50:18;;;;;;;17.13;15.20;;;8.00;63.60;;;;;;6269843;28;20240;-81
2023/03/19 03:53:21;;;;;;;15.47;13.87;;;8.10;63.40;;;;;;6288118;28;20479;-80
2023/03/19 03:56:24;;;;;;;16.17;14.47;;;8.00;63.70;;;;;;6284620;28;20386;-82
2023/03/19 03:59:29;;;;;;;15.30;13.80;;;8.00;63.80;;;;;;6266149;28;20227;-83
2023/03/19 04:02:33;;;;;;;15.43;13.83;;;8.00;63.80;;;;;;6283056;28;20375;-79
2023/03/19 04:05:36;;;;;;;16.27;14.53;;;8.00;63.90;;;;;;6283900;28;20237;-81
2023/03/19 04:08:39;;;;;;;17.90;14.77;;;8.00;63.90;;;;;;6290182;28;20225;-81
2023/03/19 04:11:42;;;;;;;15.53;14.03;;;8.00;64.00;;;;;;6277691;28;20257;-81
2023/03/19 04:14:47;;;;;;;19.17;15.53;;;8.00;64.00;;;;;;6269113;28;20230;-81
2023/03/19 04:17:50;;;;;;;15.37;13.93;;;8.00;64.20;;;;;;6255024;28;20230;-81
2023/03/19 04:20:53;;;;;;;19.07;16.87;;;8.00;64.20;;;;;;6268338;28;20242;-81
2023/03/19 04:23:56;;;;;;;16.53;14.63;;;8.00;64.30;;;;;;6255051;28;20238;-82
2023/03/19 04:27:00;;;;;;;16.60;14.90;;;8.00;64.30;;;;;;6256470;28;20247;-81
2023/03/19 04:30:05;;;;;;;17.10;15.30;;;8.00;64.30;;;;;;6270651;28;20242;-80
2023/03/19 04:33:09;;;;;;;16.20;13.87;;;8.00;64.30;;;;;;6246825;28;20473;-81
2023/03/19 04:36:14;;;;;;;18.20;15.30;;;8.00;64.30;;;;;;6266099;28;20242;-81
2023/03/19 04:39:17;;;;;;;16.57;13.80;;;8.10;64.10;;;;;;6252784;28;20330;-80
2023/03/19 04:42:20;;;;;;;17.13;15.33;;;8.10;63.60;;;;;;6255774;28;20289;-83
2023/03/19 04:45:25;;;;;;;16.07;14.37;;;8.10;63.60;;;;;;6254062;28;20245;-80
2023/03/19 04:48:28;;;;;;;16.20;14.07;;;8.20;63.50;;;;;;6259495;28;20309;-79
2023/03/19 04:51:32;;;;;;;15.10;13.80;;;8.10;63.40;;;;;;6241110;28;20674;-79
2023/03/19 04:54:35;;;;;;;19.77;15.17;;;8.10;63.50;;;;;;6262262;28;20241;-78
2023/03/19 04:57:38;;;;;;;18.80;14.90;;;8.10;63.50;;;;;;6221512;28;20244;-78
2023/03/19 05:00:45;;;;;;;17.50;15.63;;;8.10;63.50;;;;;;6251388;28;20283;-79
2023/03/19 05:03:48;;;;;;;15.20;13.60;;;8.10;63.70;;;;;;6243825;28;20235;-79
2023/03/19 05:06:54;;;;;;;16.27;14.23;;;8.10;63.70;;;;;;6253255;28;20233;-79
2023/03/19 05:09:57;;;;;;;15.80;14.17;;;8.10;64.10;;;;;;6247740;28;20347;-79
2023/03/19 05:13:01;;;;;;;17.43;15.63;;;8.10;64.50;;;;;;6251312;28;20329;-80
2023/03/19 05:16:05;;;;;;;16.20;14.53;;;8.10;64.90;;;;;;6256351;28;20260;-78
2023/03/19 05:19:09;;;;;;;16.23;14.17;;;8.10;65.30;;;;;;6249139;28;20380;-79
2023/03/19 05:22:12;;;;;;;18.27;16.33;;;8.10;66.00;;;;;;6271619;28;20381;-79
2023/03/19 05:25:15;;;;;;;19.97;16.93;;;8.20;67.00;;;;;;6252499;28;20241;-81
2023/03/19 05:28:18;;;;;;;24.37;19.77;;;8.20;68.30;;;;;;6249476;28;20226;-79
2023/03/19 05:31:23;;;;;;;20.90;18.70;;;8.20;69.60;;;;;;6241675;28;20297;-81
2023/03/19 05:34:26;;;;;;;20.83;18.37;;;8.20;70.10;;;;;;6253279;28;20377;-81
2023/03/19 05:37:29;;;;;;;23.83;18.20;;;8.10;71.60;;;;;;6256076;28;20240;-79
2023/03/19 05:40:33;;;;;;;19.90;17.10;;;8.20;73.10;;;;;;6262109;28;20296;-79
2023/03/19 05:43:37;;;;;;;17.13;15.47;;;8.10;74.50;;;;;;6267363;28;20264;-80
2023/03/19 05:46:42;;;;;;;17.37;14.10;;;8.20;75.30;;;;;;6252180;28;20339;-79
2023/03/19 05:49:45;;;;;;;17.03;15.40;;;8.30;76.30;;;;;;6277726;28;20264;-78
2023/03/19 05:52:49;;;;;;;19.77;16.47;;;8.40;76.40;;;;;;6266547;28;20234;-80
2023/03/19 05:55:52;;;;;;;17.17;15.40;;;8.50;76.50;;;;;;6279141;28;20234;-79
2023/03/19 05:58:55;;;;;;;17.00;15.20;;;8.50;76.50;;;;;;6276906;28;20234;-78
2023/03/19 06:02:00;;;;;;;15.17;13.60;;;8.50;76.60;;;;;;6271183;28;20739;-80
2023/03/19 06:05:03;;;;;;;17.13;15.43;;;8.60;76.50;;;;;;6272137;28;20706;-81
2023/03/19 06:08:07;;;;;;;15.67;14.17;;;8.60;76.60;;;;;;6259348;28;20268;-80
2023/03/19 06:11:10;;;;;;;16.57;14.87;;;8.70;76.60;;;;;;6259924;28;20255;-79
2023/03/19 06:14:14;;;;;;;16.37;14.77;;;8.80;76.50;;;;;;6253666;28;20230;-79
2023/03/19 06:17:18;;;;;;;14.50;13.10;;;8.90;76.20;;;;;;6267556;28;20245;-80
2023/03/19 06:20:21;;;;;;;14.70;13.40;;;9.00;76.00;;;;;;6285864;28;20705;-80
2023/03/19 06:23:25;;;;;;;16.80;14.97;;;9.10;76.00;;;;;;6278016;28;20712;-77
2023/03/19 06:26:28;;;;;;;18.63;16.70;;;9.20;76.10;;;;;;6285678;28;20685;-79
2023/03/19 06:29:31;;;;;;;20.10;17.50;;;9.20;75.70;;;;;;6269966;28;20232;-79
2023/03/19 06:32:36;;;;;;;19.17;17.30;;;9.20;75.10;;;;;;6280629;28;20257;-81
2023/03/19 06:35:39;;;;;;;19.63;17.73;;;9.20;74.30;;;;;;6280033;28;20244;-80
2023/03/19 06:38:42;;;;;;;21.67;19.37;;;9.00;74.30;;;;;;6253106;28;20287;-80
2023/03/19 06:41:45;;;;;;;19.70;17.47;;;8.90;74.20;;;;;;6251460;28;20243;-81
2023/03/19 06:44:48;;;;;;;19.27;17.03;;;8.90;73.60;;;;;;6248311;28;20268;-80
2023/03/19 06:47:57;;;;;;;19.07;17.07;;;8.80;73.00;;;;;;6252928;28;20262;-80
2023/03/19 06:51:00;;;;;;;18.67;16.80;;;8.80;72.50;;;;;;6261153;28;20328;-78
2023/03/19 06:54:03;;;;;;;19.30;17.27;;;8.80;71.50;;;;;;6255317;28;20324;-81
2023/03/19 06:57:08;;;;;;;18.77;16.97;;;8.70;71.10;;;;;;6251565;28;21368;-80
2023/03/19 07:00:12;;;;;;;17.53;15.80;;;8.60;71.40;;;;;;6252021;28;20273;-81
2023/03/19 07:03:16;;;;;;;19.53;17.63;;;8.60;70.50;;;;;;6248619;28;20226;-81
2023/03/19 07:06:19;;;;;;;17.10;15.33;;;8.60;71.20;;;;;;6251055;28;20238;-79
2023/03/19 07:09:23;;;;;;;18.90;16.73;;;8.60;71.20;;;;;;6247691;28;20331;-80
2023/03/19 07:12:27;;;;;;;18.17;16.10;;;8.60;70.80;;;;;;6261324;28;20688;-79
2023/03/19 07:15:30;;;;;;;21.47;17.83;;;8.50;70.90;;;;;;6266094;28;20233;-80
2023/03/19 07:18:34;;;;;;;18.97;17.03;;;8.40;71.60;;;;;;6256867;28;20222;-80
2023/03/19 07:21:37;;;;;;;22.27;17.53;;;8.50;71.60;;;;;;6254991;28;20254;-77
2023/03/19 07:24:40;;;;;;;19.37;17.20;;;8.50;71.40;;;;;;6258764;28;20247;-80
2023/03/19 07:27:46;;;;;;;19.80;17.70;;;8.60;71.10;;;;;;6256352;28;20742;-80
2023/03/19 07:30:52;;;;;;;19.43;17.50;;;8.60;71.40;;;;;;6258732;28;20678;-78
2023/03/19 07:33:56;;;;;;;18.13;16.23;;;8.60;71.50;;;;;;6249147;28;20495;-79
2023/03/19 07:37:00;;;;;;;17.30;15.80;;;8.70;71.50;;;;;;6255035;28;20674;-78
2023/03/19 07:40:03;;;;;;;18.33;15.67;;;8.80;71.60;;;;;;6255981;28;20321;-80
2023/03/19 07:43:07;;;;;;;19.87;17.63;;;8.80;71.80;;;;;;6260782;28;20611;-80
2023/03/19 07:46:10;;;;;;;18.83;17.07;;;8.90;71.70;;;;;;6246364;28;20427;-80
2023/03/19 07:49:15;;;;;;;20.20;18.10;;;9.00;71.60;;;;;;6247179;28;20832;-78
2023/03/19 07:52:18;;;;;;;19.07;17.17;;;9.20;71.60;;;;;;6248506;28;20629;-80
2023/03/19 07:55:22;;;;;;;18.27;16.47;;;9.40;71.60;;;;;;6259643;28;20230;-81
2023/03/19 07:58:25;;;;;;;18.90;16.60;;;9.60;71.10;;;;;;6252223;28;20233;-80
2023/03/19 08:01:28;;;;;;;19.50;16.83;;;9.80;70.20;;;;;;6255495;28;20283;-79
2023/03/19 08:04:33;;;;;;;19.27;17.23;;;10.00;68.80;;;;;;6253281;28;20723;-78
2023/03/19 08:07:37;;;;;;;20.90;16.47;;;10.10;69.40;;;;;;6270939;28;20243;-76
2023/03/19 08:10:40;;;;;;;15.73;14.33;;;10.10;69.20;;;;;;6285041;28;20240;-78
2023/03/19 08:13:44;;;;;;;16.70;15.00;;;10.20;69.20;;;;;;6286630;28;20218;-76
2023/03/19 08:16:47;;;;;;;20.97;16.97;;;10.20;69.00;;;;;;6285068;28;20245;-78
2023/03/19 08:19:51;;;;;;;16.73;15.10;;;10.20;69.20;;;;;;6285398;28;20226;-77
2023/03/19 08:22:55;;;;;;;18.23;16.33;;;10.30;69.30;;;;;;6292228;28;20237;-79
2023/03/19 08:25:58;;;;;;;19.47;16.47;;;10.40;69.50;;;;;;6280835;28;20360;-78
2023/03/19 08:29:02;;;;;;;17.87;15.80;;;10.30;69.00;;;;;;6311948;28;20297;-78
2023/03/19 08:32:06;;;;;;;18.83;16.37;;;10.30;69.20;;;;;;6284301;28;20252;-78
2023/03/19 08:35:14;;;;;;;17.47;15.63;;;10.30;69.00;;;;;;6285906;28;20235;-76
2023/03/19 08:38:18;;;;;;;17.47;15.67;;;10.30;69.20;;;;;;6290783;28;20238;-79
2023/03/19 08:41:21;;;;;;;17.40;15.70;;;10.20;69.50;;;;;;6287081;28;20246;-79
2023/03/19 08:44:25;;;;;;;16.43;13.93;;;10.10;69.90;;;;;;6282162;28;20218;-79
2023/03/19 08:47:27;;;;;;;16.20;14.23;;;10.00;70.40;;;;;;6287176;28;20236;-77
2023/03/19 08:50:32;;;;;;;17.47;15.77;;;10.00;71.00;;;;;;6264597;28;20234;-79
2023/03/19 08:53:36;;;;;;;17.63;15.80;;;10.00;72.60;;;;;;6299163;28;20241;-80
2023/03/19 08:56:39;;;;;;;19.10;15.93;;;9.70;73.50;;;;;;6295828;28;20267;-78
2023/03/19 08:59:43;;;;;;;20.63;16.70;;;9.70;73.90;;;;;;6290002;28;20413;-79
2023/03/19 09:02:46;;;;;;;18.57;16.73;;;9.50;75.10;;;;;;6319084;28;20290;-76
2023/03/19 09:05:50;;;;;;;21.07;18.03;;;9.50;75.40;;;;;;6302174;28;20424;-80
2023/03/19 09:08:53;;;;;;;20.20;17.80;;;9.40;75.60;;;;;;6305632;28;20237;-78
2023/03/19 09:11:56;;;;;;;21.90;18.73;;;9.30;75.80;;;;;;6287069;28;20748;-79
2023/03/19 09:15:00;;;;;;;19.27;17.30;;;9.20;76.00;;;;;;6290575;28;20241;-77
2023/03/19 09:18:03;;;;;;;19.40;17.47;;;9.20;76.40;;;;;;6317510;28;20301;-77
2023/03/19 09:21:07;;;;;;;19.03;16.87;;;9.20;76.90;;;;;;6310598;28;20222;-77
2023/03/19 09:24:10;;;;;;;18.47;16.60;;;9.20;76.90;;;;;;6307864;28;20214;-78
2023/03/19 09:27:14;;;;;;;16.67;14.97;;;9.20;76.70;;;;;;6307239;28;20230;-78
2023/03/19 09:30:17;;;;;;;21.60;17.10;;;9.40;76.70;;;;;;6274351;28;20244;-80
2023/03/19 09:33:21;;;;;;;17.30;15.60;;;9.50;76.60;;;;;;6255919;28;20605;-80
2023/03/19 09:36:26;;;;;;;16.73;15.27;;;9.60;76.50;;;;;;6255185;28;20606;-79
2023/03/19 09:39:29;;;;;;;16.90;15.30;;;9.50;76.50;;;;;;6262597;28;20226;-80
2023/03/19 09:42:48;;;;;;;17.17;15.37;;;9.60;76.50;;;;;;6252056;28;20377;-79
2023/03/19 09:45:51;;;;;;;15.33;14.07;;;9.60;76.60;;;;;;6252897;28;20266;-78
2023/03/19 09:48:59;;;;;;;15.13;13.77;;;9.70;76.70;;;;;;6254192;28;20726;-82
2023/03/19 09:52:15;;;;;;;17.10;15.40;;;10.00;76.90;;;;;;6242055;28;20308;-79
2023/03/19 09:55:34;;;;;;;16.57;14.60;;;10.20;76.50;;;;;;6251191;28;20235;-78
2023/03/19 09:58:37;;;;;;;16.50;15.10;;;10.50;75.60;;;;;;6254883;28;20547;-78
2023/03/19 10:01:48;;;;;;;16.97;15.13;;;10.50;75.10;;;;;;6273921;28;20685;-81
2023/03/19 10:05:05;;;;;;;15.77;14.23;;;10.60;74.60;;;;;;6245013;28;20636;-81
2023/03/19 10:08:33;;;;;;;14.87;13.47;;;10.70;74.70;;;;;;6259462;28;20231;-80
2023/03/19 10:11:47;;;;;;;14.53;13.13;;;10.80;74.80;;;;;;6263641;28;20677;-81
2023/03/19 10:15:10;;;;;;;18.47;16.63;;;11.00;74.40;;;;;;6243161;28;20525;-81
2023/03/19 10:18:19;;;;;;;15.83;14.43;;;11.10;73.40;;;;;;6281880;28;20279;-82
2023/03/19 10:21:27;;;;;;;15.63;14.20;;;11.20;73.60;;;;;;6243370;28;20234;-79
2023/03/19 10:24:38;;;;;;;16.73;15.13;;;11.40;73.50;;;;;;6257679;28;20226;-81
2023/03/19 10:27:43;;;;;;;14.67;13.37;;;11.20;73.20;;;;;;6259039;28;20227;-79
2023/03/19 10:30:55;;;;;;;16.70;15.07;;;11.10;73.40;;;;;;6262562;28;20441;-77
2023/03/19 10:34:14;;;;;;;15.17;13.83;;;11.10;73.40;;;;;;6290177;28;20385;-79
2023/03/19 10:37:19;;;;;;;16.00;14.50;;;11.30;73.30;;;;;;6289388;28;20229;-75
2023/03/19 10:40:30;;;;;;;16.07;14.53;;;11.50;73.30;;;;;;6310048;28;20225;-77
2023/03/19 10:43:34;;;;;;;15.70;14.13;;;11.50;73.70;;;;;;6320699;28;20277;-75
2023/03/19 10:46:38;;;;;;;15.13;13.63;;;11.80;73.10;;;;;;6282611;28;20413;-78
2023/03/19 10:49:41;;;;;;;15.00;13.80;;;12.00;73.00;;;;;;6287176;28;20238;-76
2023/03/19 10:52:50;;;;;;;14.10;12.50;;;12.20;72.60;;;;;;6285801;28;20234;-78
2023/03/19 10:55:57;;;;;;;14.00;12.60;;;12.30;72.00;;;;;;6300419;28;20293;-80
2023/03/19 10:59:04;;;;;;;13.23;12.03;;;12.50;71.50;;;;;;6291977;28;20237;-80
2023/03/19 11:02:16;;;;;;;14.33;13.07;;;12.70;70.70;;;;;;6265628;28;20242;-79
2023/03/19 11:05:25;;;;;;;12.43;11.23;;;12.70;69.70;;;;;;6254699;28;20639;-80
2023/03/19 11:08:28;;;;;;;11.77;10.73;;;12.50;69.30;;;;;;6279945;28;20248;-81
2023/03/19 11:11:45;;;;;;;11.73;10.83;;;12.50;69.60;;;;;;6291060;28;20725;-78
2023/03/19 11:14:52;;;;;;;12.57;11.43;;;12.70;69.60;;;;;;6282828;28;20295;-80
2023/03/19 11:18:01;;;;;;;11.60;10.60;;;12.90;69.50;;;;;;6282680;28;20324;-80
2023/03/19 11:21:09;;;;;;;11.47;10.47;;;13.10;69.30;;;;;;6277540;28;20237;-82
2023/03/19 11:24:13;;;;;;;12.07;11.17;;;13.30;68.70;;;;;;6266483;28;20219;-76
2023/03/19 11:27:17;;;;;;;12.13;11.03;;;13.30;67.60;;;;;;6275065;28;20233;-84
2023/03/19 11:30:20;;;;;;;12.20;11.20;;;13.30;68.30;;;;;;6303824;28;20301;-79
2023/03/19 11:33:42;;;;;;;11.40;10.40;;;13.30;68.20;;;;;;6292672;28;20238;-78
2023/03/19 11:36:55;;;;;;;10.67;9.80;;;13.60;67.40;;;;;;6299956;28;20222;-81
2023/03/19 11:40:09;;;;;;;9.97;9.27;;;13.70;67.50;;;;;;6294089;28;20213;-79
2023/03/19 11:43:42;;;;;;;10.30;9.50;;;13.60;67.10;;;;;;6295952;28;20230;-79
2023/03/19 11:46:54;;;;;;;11.57;10.27;;;13.60;66.90;;;;;;6252182;28;20507;-80
2023/03/19 11:50:23;;;;;;;10.27;9.40;;;13.70;66.80;;;;;;6262601;28;20654;-79
2023/03/19 11:53:31;;;;;;;12.63;11.40;;;13.80;67.00;;;;;;6276307;28;20470;-78
2023/03/19 11:56:42;;;;;;;10.97;10.13;;;13.80;67.20;;;;;;6276050;28;20226;-81
2023/03/19 12:00:03;;;;;;;10.30;9.30;;;13.90;66.50;;;;;;6275437;28;20476;-83
2023/03/19 12:03:41;;;;;;;11.00;9.93;;;13.80;66.70;;;;;;6286509;28;20498;-83
2023/03/19 12:06:55;;;;;;;11.60;10.47;;;13.90;66.40;;;;;;6258936;28;20597;-81
2023/03/19 12:10:07;;;;;;;9.80;8.90;;;13.70;66.40;;;;;;6257483;28;20250;-83
2023/03/19 12:13:24;;;;;;;9.83;9.03;;;13.80;66.70;;;;;;6250473;28;20238;-79
2023/03/19 12:16:41;;;;;;;11.47;10.57;;;13.90;66.50;;;;;;6271335;28;20241;-80
2023/03/19 12:20:16;;;;;;;10.43;9.73;;;13.90;66.60;;;;;;6274580;28;20240;-80
2023/03/19 12:23:32;;;;;;;10.33;9.40;;;13.80;67.00;;;;;;6283666;28;20233;-82
2023/03/19 12:26:49;;;;;;;11.50;10.53;;;13.90;66.80;;;;;;6271684;28;20331;-83
2023/03/19 12:29:59;;;;;;;10.43;9.40;;;14.00;66.60;;;;;;6282523;28;20245;-81
2023/03/19 12:33:24;;;;;;;9.97;9.23;;;14.00;66.40;;;;;;6258939;28;20234;-82
2023/03/19 12:36:32;;;;;;;9.73;9.03;;;14.10;66.20;;;;;;6262946;28;20476;-82
2023/03/19 12:39:42;;;;;;;9.67;8.97;;;14.20;66.20;;;;;;6258473;28;20226;-79
2023/03/19 12:42:45;;;;;;;11.90;10.80;;;14.30;66.00;;;;;;6259710;28;20242;-81
2023/03/19 12:45:52;;;;;;;11.63;10.73;;;14.50;65.80;;;;;;6251701;28;20775;-82
2023/03/19 12:49:03;;;;;;;11.73;10.77;;;14.60;65.50;;;;;;6272501;28;20240;-81
2023/03/19 12:52:15;;;;;;;12.40;11.40;;;14.70;65.50;;;;;;6271842;28;20242;-77
2023/03/19 12:55:22;;;;;;;11.30;10.40;;;14.80;64.70;;;;;;6256675;28;20332;-82
2023/03/19 12:58:34;;;;;;;9.90;9.20;;;14.80;64.60;;;;;;6261862;28;20237;-81
2023/03/19 13:01:41;;;;;;;9.63;8.87;;;14.70;65.20;;;;;;6261527;28;20849;-78
2023/03/19 13:04:52;;;;;;;9.90;9.20;;;14.80;65.10;;;;;;6265136;28;20240;-78
2023/03/19 13:08:02;;;;;;;11.03;10.23;;;15.00;64.70;;;;;;6283721;28;20679;-78
2023/03/19 13:11:12;;;;;;;11.70;10.70;;;15.00;64.40;;;;;;6283456;28;20314;-77
2023/03/19 13:14:23;;;;;;;13.27;11.97;;;15.00;64.80;;;;;;6281488;28;20243;-76
2023/03/19 13:17:31;;;;;;;10.53;9.67;;;15.00;65.20;;;;;;6263029;28;20245;-83
2023/03/19 13:20:56;;;;;;;11.10;10.30;;;15.10;64.60;;;;;;6278137;28;20231;-85
2023/03/19 13:24:08;;;;;;;10.23;9.50;;;15.30;64.20;;;;;;6279880;28;20241;-80
2023/03/19 13:27:18;;;;;;;9.77;9.07;;;15.30;64.00;;;;;;6255520;28;20490;-80
2023/03/19 13:30:23;;;;;;;10.53;9.47;;;15.40;64.00;;;;;;6254100;28;20245;-81
2023/03/19 13:33:26;;;;;;;10.00;9.30;;;15.50;63.80;;;;;;6268065;28;20374;-80
2023/03/19 13:36:35;;;;;;;10.10;9.20;;;15.60;63.60;;;;;;6264574;28;20226;-77
2023/03/19 13:39:40;;;;;;;8.77;8.17;;;15.60;63.20;;;;;;6274496;28;20412;-81
2023/03/19 13:42:44;;;;;;;9.17;8.57;;;15.60;63.30;;;;;;6280839;28;20241;-80
2023/03/19 13:45:52;;;;;;;11.43;10.47;;;15.80;63.30;;;;;;6279384;28;20233;-77
2023/03/19 13:49:08;;;;;;;11.60;10.60;;;15.80;62.90;;;;;;6276546;28;20229;-80
2023/03/19 13:52:50;;;;;;;10.27;9.37;;;15.80;63.00;;;;;;6274212;28;20234;-81
2023/03/19 13:55:54;;;;;;;11.77;10.80;;;15.80;63.20;;;;;;6262418;28;20675;-80
2023/03/19 13:59:23;;;;;;;12.23;10.87;;;15.80;63.20;;;;;;6255306;28;20245;-84
2023/03/19 14:02:49;;;;;;;10.70;9.80;;;15.80;63.10;;;;;;6255698;28;20290;-80
2023/03/19 14:05:55;;;;;;;10.77;9.87;;;16.00;62.90;;;;;;6253964;28;20376;-82
2023/03/19 14:09:00;;;;;;;10.80;9.80;;;16.10;62.60;;;;;;6269705;28;20336;-82
2023/03/19 14:12:22;;;;;;;10.10;9.27;;;16.20;62.80;;;;;;6286959;28;20252;-80
2023/03/19 14:15:29;;;;;;;10.37;9.47;;;16.30;62.70;;;;;;6261872;28;20226;-81
2023/03/19 14:18:34;;;;;;;11.10;10.17;;;16.40;62.60;;;;;;6258477;28;20241;-79
2023/03/19 14:21:41;;;;;;;10.93;9.93;;;16.40;62.30;;;;;;6249948;28;20254;-80
2023/03/19 14:25:02;;;;;;;10.67;9.67;;;16.40;62.30;;;;;;6224511;28;20241;-79
2023/03/19 14:28:10;;;;;;;11.30;10.30;;;16.40;62.60;;;;;;6261610;28;20238;-77
2023/03/19 14:31:24;;;;;;;11.73;10.73;;;16.40;62.20;;;;;;6260911;28;20360;-78
2023/03/19 14:34:32;;;;;;;11.27;10.20;;;16.50;61.40;;;;;;6258791;28;20389;-81
2023/03/19 14:37:44;;;;;;;10.60;9.80;;;16.60;61.10;;;;;;6260316;28;20480;-82
2023/03/19 14:40:52;;;;;;;9.57;8.80;;;16.60;58.90;;;;;;6262231;28;20737;-81
2023/03/19 14:44:29;;;;;;;8.73;7.93;;;16.70;57.00;;;;;;6262664;28;20321;-81
2023/03/19 14:47:51;;;;;;;8.50;7.73;;;16.70;56.80;;;;;;6224037;28;20253;-80
2023/03/19 14:51:07;;;;;;;8.53;7.80;;;16.40;56.40;;;;;;6279210;28;20234;-81
2023/03/19 14:54:21;;;;;;;8.53;7.73;;;16.40;56.60;;;;;;6257277;28;20732;-80
2023/03/19 14:57:29;;;;;;;8.23;7.63;;;16.40;57.00;;;;;;6256887;28;20830;-81
2023/03/19 15:00:41;;;;;;;8.47;7.67;;;16.50;56.60;;;;;;6269617;28;20230;-80
2023/03/19 15:03:44;;;;;;;9.10;7.77;;;16.50;56.30;;;;;;6259734;28;20231;-81
2023/03/19 15:06:58;;;;;;;7.93;7.23;;;16.60;56.20;;;;;;6259978;28;20280;-80
2023/03/19 15:10:03;;;;;;;8.33;7.60;;;16.60;56.40;;;;;;6255589;28;20257;-79
2023/03/19 15:13:24;;;;;;;9.10;8.20;;;16.50;56.50;;;;;;6259747;28;20242;-79
2023/03/19 15:16:37;;;;;;;8.40;7.80;;;16.40;56.80;;;;;;6236243;28;20417;-80
2023/03/19 15:19:40;;;;;;;9.03;8.17;;;16.20;56.70;;;;;;6256940;28;20234;-81
2023/03/19 15:22:43;;;;;;;9.90;9.10;;;16.10;56.40;;;;;;6254291;28;20236;-81
2023/03/19 15:25:52;;;;;;;8.50;7.77;;;16.00;56.90;;;;;;6261321;28;20233;-81
2023/03/19 15:28:56;;;;;;;8.50;7.80;;;15.90;57.10;;;;;;6262084;28;20238;-81
2023/03/19 15:32:00;;;;;;;9.90;7.90;;;15.90;57.40;;;;;;6258633;28;20748;-81
2023/03/19 15:35:11;;;;;;;8.60;7.80;;;15.90;57.50;;;;;;6266426;28;20279;-82
2023/03/19 15:38:18;;;;;;;9.67;8.20;;;15.90;57.30;;;;;;6260233;28;20621;-80
2023/03/19 15:41:24;;;;;;;8.70;8.10;;;16.00;57.80;;;;;;6253432;28;20757;-81
2023/03/19 15:44:32;;;;;;;7.03;6.53;;;15.80;57.50;;;;;;6251785;28;20234;-82
2023/03/19 15:47:39;;;;;;;8.87;8.17;;;15.90;57.20;;;;;;6261526;28;20241;-82
2023/03/19 15:50:45;;;;;;;9.57;8.77;;;16.00;57.40;;;;;;6260535;28;20239;-80
2023/03/19 15:53:49;;;;;;;9.27;8.57;;;16.00;56.90;;;;;;6252291;28;20716;-80
2023/03/19 15:56:53;;;;;;;10.73;9.47;;;16.00;57.50;;;;;;6259751;28;20225;-82
2023/03/19 16:00:00;;;;;;;9.67;8.77;;;16.00;57.30;;;;;;6244681;28;20817;-84